Terminal Aerodrome Forecast
Issued by NWS

Current Version | Previous Version | Graphics & Text | Print | Product List | Glossary On
Versions: 1 2 3 4 5 6 7 8 9 10 11 12 13 14 15 16 17 18 19 20 21 22 23
000
FTUS41 KRLX 240244 AAA
TAFCKB
TAF AMD
KCKB 240244Z 2403/2424 08008KT P6SM -RA OVC070
     FM240900 11007KT P6SM -SHRA OVC050
     FM242100 10008G14KT P6SM OVC045=

USA.gov is the U.S. government's official web portal to all federal, state and local government web resources and services.